Terminal Aerodrome Forecast
Issued by NWS Wakefield, VA

Home | Current Version | Previous Version | Text Only | Print | Product List | Glossary On
Versions: 1 2 3 4 5 6 7 8 9 10 11 12 13 14
000
FTUS41 KAKQ 220500
TAFRIC
TAF
KRIC 220527Z 2206/2306 05003KT P6SM OVC045
     FM221100 04006KT 5SM -RA BR OVC040
     FM221500 02008KT 2SM -RA BR OVC008
     FM221800 01006KT 4SM -DZ BR OVC006
     FM222200 02005KT 4SM BR OVC004=

USA.gov is the U.S. government's official web portal to all federal, state and local government web resources and services.